Time;durP1;ratioP1;P1;durP2;ratioP2;P2;SDS_P1;SDS_P2;PMS_P1;PMS_P2;Temp;Humidity;BMP_temperature;BMP_pressure;BME280_temperature;BME280_humidity;BME280_pressure;Samples;Min_cycle;Max_cycle;Signal;HPM_P1;HPM_P2
2020/12/17 00:00:06;;;;;;;;;81.40;71.00;;;;;11.50;45.68;99549.88;6188341;28;97142;-59
2020/12/17 00:03:08;;;;;;;;;78.40;69.20;;;;;11.48;45.72;99544.72;6188601;28;97046;-59
2020/12/17 00:06:12;;;;;;;;;85.00;71.60;;;;;11.76;45.41;99587.66;6188177;28;98466;-59
2020/12/17 00:09:13;;;;;;;;;77.25;66.25;;;;;11.78;45.45;99580.16;6172150;28;96680;-59
2020/12/17 00:12:15;;;;;;;;;79.00;67.00;;;;;11.79;45.55;99581.00;6190054;28;97705;-59
2020/12/17 00:15:19;;;;;;;;;80.40;68.00;;;;;11.74;45.33;99573.53;6188954;28;97471;-59
2020/12/17 00:18:20;;;;;;;;;79.60;65.60;;;;;11.63;45.60;99563.38;6175259;28;96380;-59
2020/12/17 00:21:22;;;;;;;;;79.00;67.00;;;;;11.60;45.47;99575.41;6188698;28;96785;-59
2020/12/17 00:24:23;;;;;;;;;76.75;65.00;;;;;11.56;45.54;99571.47;6174538;28;97581;-59
2020/12/17 00:27:24;;;;;;;;;77.00;63.50;;;;;11.53;45.76;99574.59;6172781;28;97045;-59
2020/12/17 00:30:26;;;;;;;;;77.00;65.00;;;;;11.50;46.19;99572.31;6189494;28;96440;-59
2020/12/17 00:33:27;;;;;;;;;74.80;61.00;;;;;11.56;46.08;99570.66;6187348;28;97573;-59
2020/12/17 00:36:29;;;;;;;;;77.00;62.25;;;;;11.60;46.07;99564.63;6166544;28;97549;-59
2020/12/17 00:39:30;;;;;;;;;77.00;63.00;;;;;11.62;45.80;99570.66;6173168;28;96602;-59
2020/12/17 00:42:31;;;;;;;;;75.00;59.00;;;;;11.66;45.55;99574.56;6186602;28;97453;-59
2020/12/17 00:45:33;;;;;;;;;70.80;54.00;;;;;11.68;45.51;99571.63;6185266;28;97045;-59
2020/12/17 00:48:36;;;;;;;;;74.00;57.00;;;;;11.72;45.58;99564.78;6187101;28;97105;-58
2020/12/17 00:51:37;;;;;;;;;73.00;59.00;;;;;11.76;45.50;99565.22;6186787;28;96674;-59
2020/12/17 00:54:40;;;;;;;;;72.00;58.80;;;;;11.77;45.34;99567.72;6186432;28;97193;-59
2020/12/17 00:57:41;;;;;;;;;73.20;59.00;;;;;11.77;45.34;99572.28;6186345;28;98684;-58
2020/12/17 01:00:43;;;;;;;;;71.00;55.40;;;;;11.79;45.18;99567.50;6186961;28;98330;-59
2020/12/17 01:03:44;;;;;;;;;73.50;56.00;;;;;11.81;45.21;99571.66;6186567;28;96921;-59
2020/12/17 01:06:46;;;;;;;;;69.00;53.40;;;;;11.82;45.29;99575.19;6185657;28;98108;-59
2020/12/17 01:09:47;;;;;;;;;70.40;56.20;;;;;11.83;45.05;99566.00;6184456;28;97720;-59
2020/12/17 01:12:49;;;;;;;;;70.00;53.00;;;;;11.82;45.41;99581.41;6184321;28;96576;-59
2020/12/17 01:15:53;;;;;;;;;70.00;56.60;;;;;11.87;45.17;99583.50;6185736;28;98185;-59
2020/12/17 01:18:54;;;;;;;;;70.00;57.00;;;;;11.78;45.27;99573.97;6185681;28;98284;-59
2020/12/17 01:21:56;;;;;;;;;72.20;56.00;;;;;11.79;45.36;99568.31;6186487;28;97883;-59
2020/12/17 01:24:57;;;;;;;;;70.00;55.50;;;;;11.85;45.03;99582.84;6185425;28;97035;-59
2020/12/17 01:27:59;;;;;;;;;70.80;53.00;;;;;11.68;45.16;99556.25;6185028;28;97176;-58
2020/12/17 01:31:11;;;;;;;;;82.80;69.60;;;;;11.76;45.13;99576.88;6183492;28;97488;-58
2020/12/17 01:34:12;;;;;;;;;87.00;74.00;;;;;11.81;44.98;99578.94;6185432;28;97993;-58
2020/12/17 01:37:14;;;;;;;;;86.80;73.20;;;;;11.83;45.08;99574.94;6184331;28;96494;-59
2020/12/17 01:40:15;;;;;;;;;84.50;74.50;;;;;11.83;45.22;99571.41;6183876;28;98425;-59
2020/12/17 01:43:17;;;;;;;;;81.40;73.00;;;;;11.61;45.12;99516.84;6185583;28;97470;-59
2020/12/17 01:46:18;;;;;;;;;80.00;70.00;;;;;11.77;44.99;99551.50;6186130;28;96964;-59
2020/12/17 01:49:26;;;;;;;;;84.80;72.00;;;;;11.83;45.07;99566.00;6185867;28;97281;-59
2020/12/17 01:52:28;;;;;;;;;88.40;75.20;;;;;11.76;44.97;99559.81;6185545;28;98642;-58
2020/12/17 01:55:30;;;;;;;;;90.60;80.00;;;;;11.82;45.19;99551.72;6185956;28;97184;-59
2020/12/17 01:58:40;;;;;;;;;94.20;82.00;;;;;11.84;45.07;99554.16;6185465;28;97096;-59
2020/12/17 02:01:50;;;;;;;;;98.80;86.80;;;;;11.86;45.27;99549.41;6183946;28;99295;-58
2020/12/17 02:04:53;;;;;;;;;95.60;85.40;;;;;11.88;45.14;99550.00;6185644;28;96728;-58
2020/12/17 02:08:15;;;;;;;;;98.20;87.00;;;;;11.86;45.17;99554.81;6184100;28;97267;-59
2020/12/17 02:11:17;;;;;;;;;101.40;90.00;;;;;11.68;45.13;99520.31;6184785;28;99520;-58
2020/12/17 02:14:19;;;;;;;;;103.40;89.00;;;;;11.84;44.92;99556.88;6185045;28;97248;-58
2020/12/17 02:17:21;;;;;;;;;110.00;92.00;;;;;11.81;45.26;99555.44;6184799;28;96973;-59
2020/12/17 02:20:22;;;;;;;;;106.80;90.20;;;;;11.69;45.31;99555.22;6184614;28;96709;-59
2020/12/17 02:23:24;;;;;;;;;102.60;90.40;;;;;11.67;45.30;99562.75;6184659;28;96782;-59
2020/12/17 02:26:26;;;;;;;;;103.60;91.00;;;;;11.65;45.53;99558.56;6184054;28;96504;-59
2020/12/17 02:29:27;;;;;;;;;107.75;91.00;;;;;11.63;45.51;99557.97;6184030;28;96964;-59
2020/12/17 02:32:28;;;;;;;;;102.20;90.20;;;;;11.61;45.67;99554.63;6180880;28;97132;-59
2020/12/17 02:35:30;;;;;;;;;105.00;90.00;;;;;11.57;45.48;99554.25;6184588;28;97116;-58
2020/12/17 02:38:31;;;;;;;;;102.20;90.00;;;;;11.52;45.89;99554.06;6184712;28;98762;-59
2020/12/17 02:41:32;;;;;;;;;101.50;87.00;;;;;11.40;46.00;99553.03;6184466;28;99310;-58
2020/12/17 02:44:35;;;;;;;;;104.00;86.00;;;;;11.12;45.93;99520.06;6183831;28;97424;-59
2020/12/17 02:47:36;;;;;;;;;98.00;87.20;;;;;11.26;46.20;99554.91;6183532;28;96999;-59
2020/12/17 02:50:39;;;;;;;;;99.80;83.80;;;;;11.26;46.16;99543.28;6184395;28;96627;-59
2020/12/17 02:53:40;;;;;;;;;93.00;84.60;;;;;11.20;46.39;99538.72;6184675;28;98929;-59
2020/12/17 02:56:42;;;;;;;;;96.00;83.25;;;;;11.20;46.40;99538.72;6184067;28;97052;-58
2020/12/17 02:59:43;;;;;;;;;96.20;83.20;;;;;11.16;46.43;99541.03;6184344;28;96970;-58
2020/12/17 03:02:45;;;;;;;;;94.50;81.25;;;;;11.10;46.68;99539.16;6183250;28;97445;-59
2020/12/17 03:05:46;;;;;;;;;93.25;79.25;;;;;11.15;46.34;99538.53;6183585;28;99139;-59
2020/12/17 03:08:52;;;;;;;;;100.75;86.00;;;;;11.10;46.57;99541.84;6182258;28;97544;-59
2020/12/17 03:11:54;;;;;;;;;95.80;81.00;;;;;10.82;46.51;99498.91;6182922;28;98013;-58
2020/12/17 03:14:56;;;;;;;;;91.60;82.00;;;;;11.06;46.46;99543.31;6182774;28;97614;-59
2020/12/17 03:17:57;;;;;;;;;97.00;81.00;;;;;11.08;46.72;99540.41;6182971;28;96949;-59
2020/12/17 03:20:58;;;;;;;;;99.00;82.60;;;;;10.83;46.63;99492.50;6188482;28;97199;-58
2020/12/17 03:24:00;;;;;;;;;93.80;79.60;;;;;11.08;46.45;99541.25;6203460;28;98664;-59
2020/12/17 03:27:01;;;;;;;;;93.00;81.60;;;;;10.97;46.45;99514.88;6188874;28;97265;-59
2020/12/17 03:30:05;;;;;;;;;90.00;79.20;;;;;11.07;46.42;99528.78;6188535;28;97177;-58
2020/12/17 03:33:07;;;;;;;;;87.25;77.00;;;;;11.07;46.31;99539.59;6187975;28;96975;-58
2020/12/17 03:36:08;;;;;;;;;80.75;70.50;;;;;11.11;45.92;99532.72;6188506;28;97862;-58
2020/12/17 03:39:15;;;;;;;;;82.50;74.00;;;;;11.13;46.01;99541.44;6188524;28;98433;-58
2020/12/17 03:42:17;;;;;;;;;83.00;71.20;;;;;11.00;45.99;99519.03;6188130;28;97874;-58
2020/12/17 03:45:19;;;;;;;;;80.00;69.00;;;;;11.11;46.05;99537.28;6188430;28;97230;-58
2020/12/17 03:48:21;;;;;;;;;80.00;72.00;;;;;11.10;45.92;99531.06;6188194;28;96787;-59
2020/12/17 03:51:22;;;;;;;;;83.40;68.20;;;;;11.12;46.02;99526.28;6188245;28;96618;-59
2020/12/17 03:54:24;;;;;;;;;78.20;65.40;;;;;11.12;45.87;99529.00;6188095;28;97456;-59
2020/12/17 03:57:25;;;;;;;;;78.00;63.40;;;;;11.16;45.73;99524.00;6188596;28;97071;-59
2020/12/17 04:00:26;;;;;;;;;84.00;69.00;;;;;11.14;45.68;99523.41;6187765;28;97155;-58
2020/12/17 04:03:28;;;;;;;;;85.75;73.00;;;;;11.08;46.07;99522.34;6187654;28;97169;-58
2020/12/17 04:06:30;;;;;;;;;79.00;69.00;;;;;11.07;45.66;99522.56;6186919;28;96704;-59
2020/12/17 04:09:32;;;;;;;;;82.50;72.50;;;;;10.99;45.81;99512.81;6188189;28;97447;-59
2020/12/17 04:12:33;;;;;;;;;80.00;67.25;;;;;11.00;45.99;99519.84;6187823;28;97482;-59
2020/12/17 04:15:35;;;;;;;;;80.80;71.00;;;;;10.96;46.24;99517.78;6187807;28;97074;-59
2020/12/17 04:18:36;;;;;;;;;81.00;72.40;;;;;10.93;46.56;99513.66;6185353;28;97184;-58
2020/12/17 04:21:38;;;;;;;;;78.00;67.00;;;;;10.77;46.90;99479.84;6186324;28;97814;-59
2020/12/17 04:24:39;;;;;;;;;79.00;67.75;;;;;10.74;46.65;99482.13;6186832;28;97326;-59
2020/12/17 04:27:41;;;;;;;;;85.20;72.20;;;;;10.91;46.60;99512.19;6187136;28;96653;-58
2020/12/17 04:30:47;;;;;;;;;83.40;71.00;;;;;10.85;46.78;99521.94;6186521;28;98714;-59
2020/12/17 04:33:48;;;;;;;;;87.00;73.00;;;;;10.85;46.76;99516.53;6187395;28;97648;-58
2020/12/17 04:36:50;;;;;;;;;87.00;72.40;;;;;10.79;46.97;99520.94;6187112;28;98556;-58
2020/12/17 04:39:56;;;;;;;;;90.40;76.00;;;;;10.79;46.97;99514.69;6186804;28;98204;-59
2020/12/17 04:43:01;;;;;;;;;90.60;79.40;;;;;10.76;46.98;99515.09;6185217;28;98613;-58
2020/12/17 04:46:04;;;;;;;;;88.40;75.20;;;;;10.70;47.26;99524.84;6185667;28;98749;-58
2020/12/17 04:49:07;;;;;;;;;80.60;71.60;;;;;10.67;47.20;99513.66;6184770;28;97221;-59
2020/12/17 04:52:13;;;;;;;;;85.50;72.25;;;;;10.69;47.22;99525.06;6185268;28;97998;-58
2020/12/17 04:55:14;;;;;;;;;88.50;77.25;;;;;10.64;47.14;99520.28;6185512;28;98572;-59
2020/12/17 04:58:20;;;;;;;;;83.40;75.00;;;;;10.60;46.95;99529.00;6187253;28;98487;-58
2020/12/17 05:01:22;;;;;;;;;91.00;75.00;;;;;10.61;46.93;99525.25;6186096;28;98139;-59
2020/12/17 05:04:24;;;;;;;;;92.40;76.80;;;;;10.53;47.15;99530.84;6185839;28;97327;-58
2020/12/17 05:07:26;;;;;;;;;88.00;74.75;;;;;10.51;47.06;99528.34;6185802;28;97181;-58
2020/12/17 05:10:28;;;;;;;;;87.60;75.00;;;;;10.39;47.25;99520.06;6185694;28;97314;-58
2020/12/17 05:13:29;;;;;;;;;88.25;74.50;;;;;10.40;47.41;99532.50;6186375;28;96741;-58
2020/12/17 05:16:31;;;;;;;;;79.60;73.40;;;;;10.34;47.45;99535.19;6185343;28;97266;-58
2020/12/17 05:19:34;;;;;;;;;81.00;69.60;;;;;10.26;47.46;99541.56;6186124;28;98701;-58
2020/12/17 05:22:35;;;;;;;;;78.40;67.40;;;;;10.25;47.03;99547.19;6185965;28;96837;-58
2020/12/17 05:25:38;;;;;;;;;78.00;68.25;;;;;10.22;47.02;99539.50;6185744;28;97647;-58
2020/12/17 05:28:40;;;;;;;;;79.40;68.60;;;;;10.15;46.99;99544.03;6185716;28;98370;-58
2020/12/17 05:31:42;;;;;;;;;80.00;69.40;;;;;10.11;47.12;99546.28;6185011;28;98489;-58
2020/12/17 05:34:44;;;;;;;;;81.75;69.25;;;;;10.09;46.94;99550.22;6185739;28;96915;-59
2020/12/17 05:37:46;;;;;;;;;77.80;67.20;;;;;10.02;47.04;99547.47;6185285;28;97257;-59
2020/12/17 05:40:48;;;;;;;;;76.60;67.00;;;;;9.99;47.15;99558.66;6186075;28;96472;-59
2020/12/17 05:43:50;;;;;;;;;77.75;67.25;;;;;9.93;47.07;99554.91;6183455;28;96771;-59
2020/12/17 05:46:53;;;;;;;;;76.80;63.40;;;;;9.89;46.80;99550.13;6185864;28;96550;-58
2020/12/17 05:49:54;;;;;;;;;77.75;67.00;;;;;9.85;46.86;99562.34;6184298;28;97022;-59
2020/12/17 05:52:59;;;;;;;;;79.60;69.80;;;;;9.80;47.39;99568.34;6184436;28;96706;-58
2020/12/17 05:56:03;;;;;;;;;77.80;67.40;;;;;9.75;47.27;99561.88;6185641;28;96782;-59
2020/12/17 05:59:05;;;;;;;;;78.00;65.80;;;;;9.69;47.28;99574.28;6185199;28;96857;-59
2020/12/17 06:02:26;;;;;;;;;78.00;67.00;;;;;9.65;46.91;99564.94;6185582;28;97551;-58
2020/12/17 06:05:30;;;;;;;;;79.00;66.75;;;;;9.56;46.81;99569.66;6185604;28;96707;-58
2020/12/17 06:08:42;;;;;;;;;78.67;68.67;;;;;9.47;47.71;99567.34;6163744;28;97324;-58
2020/12/17 06:11:43;;;;;;;;;79.00;68.00;;;;;9.50;47.96;99572.31;6183734;28;96698;-59
2020/12/17 06:14:47;;;;;;;;;79.50;67.50;;;;;9.46;47.97;99574.56;6183330;28;97419;-58
2020/12/17 06:17:56;;;;;;;;;77.00;68.00;;;;;9.42;47.66;99580.56;6184190;28;98964;-58
2020/12/17 06:20:58;;;;;;;;;80.60;68.00;;;;;9.35;47.84;99564.34;6184294;28;97087;-58
2020/12/17 06:24:00;;;;;;;;;79.00;67.00;;;;;9.32;47.92;99570.13;6184592;28;97134;-58
2020/12/17 06:27:02;;;;;;;;;79.00;69.00;;;;;9.24;48.03;99569.44;6181875;28;97593;-58
2020/12/17 06:30:08;;;;;;;;;79.60;69.60;;;;;9.21;48.11;99581.44;6182452;28;96932;-58
2020/12/17 06:33:11;;;;;;;;;80.00;68.50;;;;;9.16;47.68;99586.56;6181425;28;97894;-58
2020/12/17 06:36:30;;;;;;;;;79.40;67.80;;;;;9.13;47.68;99585.13;6183872;28;96654;-57
2020/12/17 06:39:33;;;;;;;;;77.40;63.00;;;;;8.89;48.35;99541.69;6181509;28;98113;-58
2020/12/17 06:42:36;;;;;;;;;76.00;65.00;;;;;9.17;48.32;99585.56;6183172;28;97014;-58
2020/12/17 06:45:39;;;;;;;;;78.25;66.25;;;;;9.18;48.14;99578.31;6181235;28;98609;-58
2020/12/17 06:48:41;;;;;;;;;76.75;67.00;;;;;9.20;47.92;99592.38;6183639;28;96646;-58
2020/12/17 06:51:44;;;;;;;;;79.60;69.00;;;;;9.17;48.11;99593.63;6195694;28;97203;-58
2020/12/17 06:54:46;;;;;;;;;77.75;66.00;;;;;9.19;47.95;99596.94;6208008;28;97513;-58
2020/12/17 06:57:50;;;;;;;;;77.00;65.40;;;;;9.11;47.80;99589.84;6187177;28;97784;-59
2020/12/17 07:00:53;;;;;;;;;80.60;71.00;;;;;9.12;48.08;99598.75;6187400;28;97228;-59
2020/12/17 07:03:55;;;;;;;;;79.00;67.00;;;;;8.79;48.43;99570.75;6202552;28;96810;-59
2020/12/17 07:07:16;;;;;;;;;78.00;67.00;;;;;9.00;48.18;99603.81;6185901;28;98146;-59
2020/12/17 07:10:26;;;;;;;;;73.00;60.80;;;;;9.02;48.23;99609.00;6188505;28;97449;-59
2020/12/17 07:13:40;;;;;;;;;76.60;64.40;;;;;9.05;48.19;99614.00;6186058;28;97130;-60
2020/12/17 07:16:50;;;;;;;;;79.50;67.00;;;;;9.09;47.89;99613.41;6188846;28;98910;-59
2020/12/17 07:19:52;;;;;;;;;76.00;61.33;;;;;9.12;47.97;99617.59;6188913;28;97016;-58
2020/12/17 07:22:53;;;;;;;;;75.00;61.00;;;;;9.15;47.69;99619.88;6188156;28;96780;-58
2020/12/17 07:25:55;;;;;;;;;75.50;59.50;;;;;9.12;47.69;99625.66;6189542;28;96802;-58
2020/12/17 07:28:56;;;;;;;;;73.00;59.00;;;;;9.07;47.95;99628.09;6187760;28;96507;-58
2020/12/17 07:32:20;;;;;;;;;71.50;57.00;;;;;8.80;48.71;99628.88;6187069;28;97485;-59
2020/12/17 07:35:25;;;;;;;;;75.00;60.75;;;;;8.63;49.11;99636.38;6187428;28;97390;-58
2020/12/17 07:38:28;;;;;;;;;75.00;60.00;;;;;8.50;49.50;99639.72;6186673;28;98425;-59
2020/12/17 07:41:43;;;;;;;;;76.00;59.40;;;;;8.50;49.57;99626.28;6185624;28;97475;-59
2020/12/17 07:44:56;;;;;;;;;74.50;57.75;;;;;8.51;49.59;99633.34;6194558;28;97165;-58
2020/12/17 07:47:58;;;;;;;;;73.20;56.00;;;;;8.52;49.46;99632.31;6187215;28;97171;-59
2020/12/17 07:51:29;;;;;;;;;73.00;56.33;;;;;8.40;49.72;99625.78;6186700;28;97227;-59
2020/12/17 07:54:31;;;;;;;;;73.00;56.40;;;;;8.41;49.74;99627.44;6177169;28;97466;-59
2020/12/17 07:57:32;;;;;;;;;72.75;56.00;;;;;8.49;49.56;99630.03;6186206;28;98478;-59
2020/12/17 08:00:34;;;;;;;;;73.80;59.40;;;;;8.54;49.47;99619.53;6184054;28;97139;-59
2020/12/17 08:03:43;;;;;;;;;73.00;57.20;;;;;8.67;49.21;99616.97;6186190;28;97196;-60
2020/12/17 08:06:51;;;;;;;;;71.20;57.20;;;;;6.49;48.98;99322.88;6331521;22;98076;-88
2020/12/17 08:10:00;;;;;;;;;75.00;60.20;;;;;8.10;48.77;99528.31;6149386;28;97667;-88
2020/12/17 08:13:01;;;;;;;;;73.20;60.80;;;;;8.52;48.69;99583.09;6182284;28;97218;-87
2020/12/17 08:16:04;;;;;;;;;75.00;57.00;;;;;8.54;48.66;99583.75;6182087;28;96902;-87
2020/12/17 08:19:06;;;;;;;;;73.80;57.00;;;;;8.24;48.44;99540.84;6183251;28;96794;-87
2020/12/17 08:22:09;;;;;;;;;73.40;56.80;;;;;8.27;48.38;99545.00;6149487;28;99380;-88
2020/12/17 08:25:10;;;;;;;;;74.80;57.00;;;;;8.52;48.48;99592.00;6166680;28;96940;-90
2020/12/17 08:28:14;;;;;;;;;71.20;54.20;;;;;8.05;48.25;99536.09;6165723;28;99856;-88
2020/12/17 08:31:24;;;;;;;;;72.60;56.60;;;;;7.97;48.48;99557.69;6165564;28;96881;-88
2020/12/17 08:34:26;;;;;;;;;73.40;59.00;;;;;8.47;48.66;99636.59;6166729;28;97660;-88
2020/12/17 08:37:27;;;;;;;;;73.00;54.40;;;;;8.19;48.49;99553.19;6182785;28;96926;-87
2020/12/17 08:40:31;;;;;;;;;73.40;57.40;;;;;8.54;48.52;99610.63;6165963;28;97871;-88
2020/12/17 08:43:43;;;;;;;;;73.00;59.00;;;;;8.58;48.46;99585.88;6150526;28;96667;-88
2020/12/17 08:46:53;;;;;;;;;71.25;54.75;;;;;8.21;48.49;99524.25;6167118;28;96994;-87
2020/12/17 08:49:54;;;;;;;;;74.60;58.40;;;;;8.74;48.15;99600.09;6164189;28;97726;-90
2020/12/17 08:52:56;;;;;;;;;75.00;58.40;;;;;7.36;48.21;99365.81;6165691;28;97047;-90
2020/12/17 08:56:00;;;;;;;;;72.60;59.40;;;;;9.17;47.92;99633.16;6154531;28;99175;-87
2020/12/17 08:59:06;;;;;;;;;75.00;60.00;;;;;9.30;47.65;99636.75;6162170;28;97662;-88
2020/12/17 09:02:25;;;;;;;;;76.40;61.00;;;;;7.55;47.22;99348.28;6170663;28;97496;-86
2020/12/17 09:05:32;;;;;;;;;73.80;60.20;;;;;9.69;46.74;99614.66;6184721;28;97060;-87
2020/12/17 09:08:42;;;;;;;;;72.40;57.00;;;;;9.85;46.20;99626.97;6169932;28;97832;-88
2020/12/17 09:11:48;;;;;;;;;77.00;60.00;;;;;9.47;46.45;99575.41;6189943;28;97025;-88
2020/12/17 09:15:10;;;;;;;;;73.40;59.40;;;;;9.98;46.08;99633.25;6184846;28;96736;-88
2020/12/17 09:18:28;;;;;;;;;75.60;60.60;;;;;8.70;45.87;99486.69;6170073;28;101204;-88
2020/12/17 09:22:02;;;;;;;;;71.00;55.80;;;;;7.50;45.33;99165.59;6188668;28;96506;-88
2020/12/17 09:25:29;;;;;;;;;75.00;58.00;;;;;10.42;45.17;99624.78;6340908;27;96233;-58
2020/12/17 09:28:30;;;;;;;;;74.20;58.80;;;;;10.42;44.99;99613.97;6306826;27;97818;-58
2020/12/17 09:31:35;;;;;;;;;75.00;59.40;;;;;10.37;45.07;99613.75;6306553;27;96950;-59
2020/12/17 09:34:37;;;;;;;;;74.00;59.00;;;;;10.41;45.09;99630.34;6286851;27;97768;-59
2020/12/17 09:37:40;;;;;;;;;72.50;56.00;;;;;10.33;45.03;99611.69;6295022;27;98293;-59
2020/12/17 09:40:44;;;;;;;;;74.00;59.00;;;;;10.21;45.21;99618.69;6300009;27;96900;-59
2020/12/17 09:43:48;;;;;;;;;72.00;57.80;;;;;10.06;45.62;99593.72;6308137;27;96678;-58
2020/12/17 09:46:52;;;;;;;;;70.75;53.75;;;;;10.22;45.48;99615.78;6302540;27;97477;-58
2020/12/17 09:49:54;;;;;;;;;71.75;56.00;;;;;10.04;45.50;99572.38;6289276;27;97231;-58
2020/12/17 09:52:55;;;;;;;;;72.00;57.00;;;;;10.33;45.39;99608.97;6308476;27;97114;-59
2020/12/17 09:55:57;;;;;;;;;69.80;53.00;;;;;10.47;45.30;99615.22;6307550;27;97106;-58
2020/12/17 09:58:58;;;;;;;;;74.75;60.00;;;;;10.57;45.04;99616.50;6307431;27;97474;-58
2020/12/17 10:02:01;;;;;;;;;72.80;58.80;;;;;10.70;44.76;99610.34;6304194;27;98451;-57
2020/12/17 10:05:04;;;;;;;;;71.80;56.00;;;;;10.91;44.51;99612.84;6306251;27;97493;-59
2020/12/17 10:08:06;;;;;;;;;75.40;59.00;;;;;11.10;44.14;99616.56;6306589;27;96860;-59
2020/12/17 10:11:08;;;;;;;;;71.80;57.00;;;;;11.21;44.17;99611.41;6302889;27;97086;-58
2020/12/17 10:14:10;;;;;;;;;69.60;56.00;;;;;11.44;43.76;99610.13;6308398;27;97386;-58
2020/12/17 10:17:11;;;;;;;;;71.00;55.20;;;;;11.73;42.91;99604.28;6306090;27;97568;-59
2020/12/17 10:20:12;;;;;;;;;70.60;55.00;;;;;12.03;42.59;99607.31;6302817;27;98353;-59
2020/12/17 10:23:19;;;;;;;;;71.80;53.00;;;;;12.71;41.33;99605.72;6308233;27;96509;-59
2020/12/17 10:26:20;;;;;;;;;75.00;58.00;;;;;13.61;39.88;99600.84;6307149;27;97414;-59
2020/12/17 10:29:22;;;;;;;;;72.40;57.40;;;;;14.37;38.63;99593.09;6308888;27;97277;-60
2020/12/17 10:32:23;;;;;;;;;70.50;54.00;;;;;15.55;36.52;99598.59;6306432;27;97150;-59
2020/12/17 10:35:25;;;;;;;;;70.20;54.00;;;;;16.66;34.67;99595.53;6298167;27;97459;-59
2020/12/17 10:38:26;;;;;;;;;64.60;50.00;;;;;17.39;32.88;99585.59;6291087;27;97103;-59
2020/12/17 10:41:28;;;;;;;;;63.40;50.20;;;;;17.94;31.95;99597.34;6291129;27;98543;-60
2020/12/17 10:44:29;;;;;;;;;64.00;50.75;;;;;18.26;31.18;99594.75;6289445;27;97475;-60
2020/12/17 10:47:33;;;;;;;;;63.00;50.00;;;;;18.67;30.13;99587.06;6289868;27;98632;-60
2020/12/17 10:50:34;;;;;;;;;64.00;50.00;;;;;18.84;30.09;99595.97;6287655;27;96929;-60
2020/12/17 10:53:36;;;;;;;;;62.00;49.00;;;;;18.55;30.23;99598.97;6291311;27;97600;-59
2020/12/17 10:56:38;;;;;;;;;63.40;49.40;;;;;18.03;30.48;99595.81;6290501;27;96681;-59
2020/12/17 10:59:39;;;;;;;;;73.20;59.00;;;;;17.26;31.37;99573.94;6289234;27;98597;-59
2020/12/17 11:02:40;;;;;;;;;75.00;59.40;;;;;16.62;32.66;99601.69;6287871;27;97236;-58
2020/12/17 11:05:42;;;;;;;;;73.40;59.00;;;;;15.95;33.64;99598.69;6290227;27;97700;-58
2020/12/17 11:08:44;;;;;;;;;73.40;58.00;;;;;15.33;34.50;99606.47;6287785;27;96990;-59
2020/12/17 11:11:45;;;;;;;;;77.20;64.20;;;;;14.91;35.35;99599.41;6287907;27;96871;-58
2020/12/17 11:14:48;;;;;;;;;76.00;63.00;;;;;14.39;36.49;99601.00;6289496;27;96941;-59
2020/12/17 11:17:49;;;;;;;;;74.60;60.60;;;;;13.91;37.22;99606.38;6280134;27;98499;-59
2020/12/17 11:20:51;;;;;;;;;76.80;60.00;;;;;13.43;38.25;99598.97;6288091;27;97864;-59
2020/12/17 11:23:52;;;;;;;;;78.00;62.20;;;;;13.09;38.86;99599.44;6287815;27;97353;-59
2020/12/17 11:26:54;;;;;;;;;77.00;65.00;;;;;12.60;40.06;99595.63;6288322;27;97419;-58
2020/12/17 11:29:55;;;;;;;;;78.00;61.60;;;;;12.35;40.75;99600.13;6265720;27;97049;-58
2020/12/17 11:32:57;;;;;;;;;73.00;56.00;;;;;11.98;41.64;99610.66;6288339;27;97962;-58
2020/12/17 11:37:59;;;;;;;;;71.80;55.40;;;;;11.60;42.39;99607.81;6336099;27;96469;-58
2020/12/17 11:41:00;;;;;;;;;73.00;55.20;;;;;11.06;42.91;99585.66;6308178;27;96656;-58
2020/12/17 11:44:07;;;;;;;;;76.25;58.75;;;;;10.96;43.59;99606.81;6308956;27;98610;-57
2020/12/17 11:47:08;;;;;;;;;70.80;55.00;;;;;10.93;43.88;99608.06;6307395;27;97435;-57
2020/12/17 11:50:10;;;;;;;;;73.00;57.00;;;;;10.89;43.87;99606.84;6301747;27;98519;-58
2020/12/17 11:53:13;;;;;;;;;72.00;56.00;;;;;10.80;44.39;99606.19;6305904;27;97609;-58
2020/12/17 11:56:15;;;;;;;;;77.40;61.40;;;;;10.71;44.74;99606.56;6306307;27;98438;-58
2020/12/17 11:59:17;;;;;;;;;77.00;60.40;;;;;10.71;44.70;99604.72;6307225;27;97177;-57
2020/12/17 12:02:19;;;;;;;;;75.67;61.67;;;;;10.72;45.04;99602.84;6306989;27;97820;-58
2020/12/17 12:05:20;;;;;;;;;77.60;62.20;;;;;10.57;45.04;99586.84;6307408;27;97157;-58
2020/12/17 12:08:22;;;;;;;;;73.00;61.00;;;;;10.63;45.21;99602.22;6302775;27;97831;-57
2020/12/17 12:11:23;;;;;;;;;74.00;60.20;;;;;9.63;45.33;99450.44;6306980;27;96493;-57
2020/12/17 12:14:26;;;;;;;;;75.50;57.50;;;;;10.51;45.69;99600.31;6306659;27;97375;-58
2020/12/17 12:17:28;;;;;;;;;75.80;59.00;;;;;10.56;45.64;99605.91;6305888;27;97638;-57
2020/12/17 12:20:29;;;;;;;;;73.25;59.00;;;;;10.59;45.82;99600.97;6298592;27;96783;-58
2020/12/17 12:23:31;;;;;;;;;71.60;56.60;;;;;10.57;45.79;99597.63;6304415;27;97146;-58
2020/12/17 12:26:33;;;;;;;;;73.40;57.00;;;;;10.53;46.13;99600.94;6307579;27;96535;-58
2020/12/17 12:29:34;;;;;;;;;73.80;55.80;;;;;10.58;46.01;99593.91;6276637;27;97497;-58
2020/12/17 12:32:36;;;;;;;;;77.40;61.60;;;;;10.54;46.03;99589.13;6300694;27;97936;-58
2020/12/17 12:35:37;;;;;;;;;76.80;57.00;;;;;10.64;45.99;99590.41;6306238;27;97918;-58
2020/12/17 12:38:39;;;;;;;;;76.00;58.50;;;;;10.64;46.20;99589.56;6305191;27;97242;-58
2020/12/17 12:41:40;;;;;;;;;73.20;57.00;;;;;10.64;46.25;99585.00;6308260;27;97541;-58
2020/12/17 12:44:42;;;;;;;;;75.00;59.00;;;;;10.65;46.09;99594.75;6306066;27;96891;-57
2020/12/17 12:47:44;;;;;;;;;72.00;54.40;;;;;10.64;46.15;99594.97;6283609;27;97136;-58
2020/12/17 12:50:49;;;;;;;;;73.00;56.40;;;;;10.68;46.25;99593.53;6288614;27;96477;-58
2020/12/17 12:53:50;;;;;;;;;72.00;53.00;;;;;10.69;46.03;99590.63;6286434;27;97399;-58
2020/12/17 12:57:03;;;;;;;;;69.40;52.80;;;;;10.66;45.83;99571.31;6270922;27;97529;-58
2020/12/17 13:00:05;;;;;;;;;66.00;48.80;;;;;10.77;45.90;99587.72;6288096;27;97075;-59
2020/12/17 13:03:09;;;;;;;;;63.00;48.00;;;;;10.76;45.43;99571.72;6278709;27;98656;-58
2020/12/17 13:06:19;;;;;;;;;60.00;45.00;;;;;10.83;45.24;99592.28;6287612;27;97574;-58
2020/12/17 13:09:23;;;;;;;;;58.40;46.00;;;;;10.89;45.40;99595.22;6288347;27;97201;-58
2020/12/17 13:12:27;;;;;;;;;65.00;48.00;;;;;10.93;45.40;99591.88;6287313;27;96975;-58
2020/12/17 13:15:28;;;;;;;;;63.80;47.00;;;;;10.86;45.33;99593.72;6270730;27;96718;-57
2020/12/17 13:18:30;;;;;;;;;63.00;47.00;;;;;10.83;45.49;99594.16;6287937;27;99147;-58
2020/12/17 13:21:31;;;;;;;;;64.00;48.25;;;;;10.84;45.47;99591.28;6287003;27;97663;-58
2020/12/17 13:24:33;;;;;;;;;63.00;47.00;;;;;10.86;45.37;99591.03;6284990;27;98160;-58
2020/12/17 13:27:34;;;;;;;;;63.00;47.00;;;;;10.88;45.58;99588.97;6286993;27;96719;-58
2020/12/17 13:30:36;;;;;;;;;63.00;48.00;;;;;10.89;45.69;99595.22;6287234;27;97511;-58
2020/12/17 13:33:38;;;;;;;;;67.60;51.00;;;;;10.86;45.79;99589.19;6286056;27;97573;-57
2020/12/17 13:36:45;;;;;;;;;64.40;50.60;;;;;10.91;45.67;99585.84;6286507;27;97411;-58
2020/12/17 13:39:47;;;;;;;;;67.40;52.20;;;;;10.91;45.66;99587.72;6286369;27;97156;-58
2020/12/17 13:42:48;;;;;;;;;67.00;50.00;;;;;10.93;45.83;99593.75;6287028;27;97512;-58
2020/12/17 13:45:50;;;;;;;;;68.60;51.00;;;;;10.88;45.90;99596.25;6287697;27;97041;-59
2020/12/17 13:48:51;;;;;;;;;71.00;55.00;;;;;10.91;45.81;99601.22;6284618;27;96684;-59
2020/12/17 13:51:52;;;;;;;;;71.00;53.60;;;;;10.81;45.94;99572.78;6273175;27;97231;-58
2020/12/17 13:54:54;;;;;;;;;71.33;52.33;;;;;10.89;45.91;99590.66;6286923;27;97342;-58
2020/12/17 13:57:55;;;;;;;;;71.00;53.25;;;;;10.83;46.12;99576.13;6286560;27;97585;-58
2020/12/17 14:00:57;;;;;;;;;71.20;54.40;;;;;10.86;45.94;99589.19;6284811;27;96729;-58
2020/12/17 14:03:58;;;;;;;;;72.40;54.40;;;;;10.88;46.10;99580.88;6285092;27;98494;-58
2020/12/17 14:07:00;;;;;;;;;71.50;55.00;;;;;10.84;46.06;99585.03;6285414;27;97553;-58